createdAt,value
2022-08-20T00:00:21.255Z,61.45
2022-08-20T00:03:28.171Z,61.65
2022-08-20T00:06:31.329Z,61.54
2022-08-20T00:09:36.503Z,61.69
2022-08-20T00:12:46.481Z,61.64
2022-08-20T00:15:50.439Z,61.60
2022-08-20T00:18:53.866Z,61.68
2022-08-20T00:21:58.327Z,61.63
2022-08-20T00:25:03.662Z,61.63
2022-08-20T00:28:07.523Z,61.50
2022-08-20T00:31:12.986Z,61.58
2022-08-20T00:34:16.135Z,61.51
2022-08-20T00:37:19.333Z,61.54
2022-08-20T00:40:27.958Z,61.53
2022-08-20T00:43:35.748Z,61.53
2022-08-20T00:46:40.935Z,61.61
2022-08-20T00:49:45.504Z,61.79
2022-08-20T00:52:51.978Z,61.73
2022-08-20T00:55:56.994Z,61.68
2022-08-20T00:59:00.770Z,61.70
2022-08-20T01:02:07.617Z,61.72
2022-08-20T01:05:11.695Z,61.72
2022-08-20T01:08:16.858Z,61.78
2022-08-20T01:11:23.132Z,61.64
2022-08-20T01:14:31.827Z,61.69
2022-08-20T01:17:37.794Z,61.78
2022-08-20T01:20:44.363Z,61.91
2022-08-20T01:23:55.390Z,61.79
2022-08-20T01:27:04.051Z,61.81
2022-08-20T01:30:09.163Z,61.94
2022-08-20T01:33:12.436Z,61.76
2022-08-20T01:36:17.201Z,61.65
2022-08-20T01:39:25.922Z,61.83
2022-08-20T01:42:34.818Z,61.77
2022-08-20T01:45:40.092Z,61.80
2022-08-20T01:48:44.218Z,61.68
2022-08-20T01:51:47.386Z,61.81
2022-08-20T01:54:52.510Z,61.83
2022-08-20T01:57:58.040Z,61.91
2022-08-20T02:01:01.330Z,61.95
2022-08-20T02:04:06.786Z,61.92
2022-08-20T02:07:21.384Z,62.13
2022-08-20T02:10:24.507Z,62.00
2022-08-20T02:13:29.154Z,61.96
2022-08-20T02:16:37.723Z,62.12
2022-08-20T02:19:45.059Z,62.12
2022-08-20T02:22:51.382Z,62.13
2022-08-20T02:25:54.414Z,62.11
2022-08-20T02:29:01.055Z,62.11
2022-08-20T02:32:24.519Z,62.26
2022-08-20T02:35:29.686Z,61.99
2022-08-20T02:38:34.855Z,61.88
2022-08-20T02:41:39.123Z,62.00
2022-08-20T02:44:43.597Z,62.02
2022-08-20T02:47:47.663Z,62.11
2022-08-20T02:50:53.985Z,62.03
2022-08-20T02:53:57.046Z,62.08
2022-08-20T02:57:00.082Z,62.16
2022-08-20T03:00:06.591Z,61.97
2022-08-20T03:03:11.323Z,62.29
2022-08-20T03:06:14.774Z,62.15
2022-08-20T03:09:17.837Z,62.09
2022-08-20T03:12:20.834Z,62.00
2022-08-20T03:15:25.282Z,62.15
2022-08-20T03:18:32.072Z,62.19
2022-08-20T03:21:35.281Z,62.22
2022-08-20T03:24:38.761Z,62.35
2022-08-20T03:27:41.875Z,62.41
2022-08-20T03:30:47.244Z,62.33
2022-08-20T03:33:53.299Z,62.46
2022-08-20T03:36:56.805Z,62.53
2022-08-20T03:40:00.335Z,62.62
2022-08-20T03:43:04.395Z,62.50
2022-08-20T03:46:22.124Z,62.56
2022-08-20T03:49:26.766Z,62.49
2022-08-20T03:52:30.197Z,62.42
2022-08-20T03:55:33.822Z,62.62
2022-08-20T03:58:36.942Z,62.59
2022-08-20T04:01:46.282Z,62.43
2022-08-20T04:04:49.933Z,62.60
2022-08-20T04:07:53.305Z,62.63
2022-08-20T04:10:59.731Z,62.50
2022-08-20T04:14:02.746Z,62.29
2022-08-20T04:17:11.698Z,62.35
2022-08-20T04:20:19.187Z,62.41
2022-08-20T04:23:23.386Z,62.34
2022-08-20T04:26:26.574Z,62.31
2022-08-20T04:29:32.114Z,62.39
2022-08-20T04:32:37.246Z,62.40
2022-08-20T04:35:41.349Z,62.38
2022-08-20T04:38:50.467Z,62.29
2022-08-20T04:41:54.058Z,62.30
2022-08-20T04:44:57.058Z,62.22
2022-08-20T04:48:05.429Z,62.33
2022-08-20T04:51:10.309Z,62.43
2022-08-20T04:54:14.604Z,62.38
2022-08-20T04:57:17.609Z,62.45
2022-08-20T05:00:20.675Z,62.48
2022-08-20T05:03:25.870Z,62.34
2022-08-20T05:06:31.724Z,62.52
2022-08-20T05:09:43.823Z,62.45
2022-08-20T05:12:56.594Z,62.40
2022-08-20T05:16:01.351Z,62.51
2022-08-20T05:19:06.763Z,62.58
2022-08-20T05:22:09.998Z,62.61
2022-08-20T05:25:13.472Z,62.47
2022-08-20T05:28:19.925Z,62.36
2022-08-20T05:31:22.863Z,62.38
2022-08-20T05:34:35.621Z,62.53
2022-08-20T05:37:41.005Z,62.61
2022-08-20T05:40:44.569Z,62.33
2022-08-20T05:43:47.648Z,62.33
2022-08-20T05:46:54.646Z,62.32
2022-08-20T05:49:59.184Z,62.44
2022-08-20T05:53:02.366Z,62.45
2022-08-20T05:56:05.413Z,62.44
2022-08-20T05:59:09.696Z,62.46
2022-08-20T06:02:26.518Z,62.20
2022-08-20T06:05:30.850Z,62.23
2022-08-20T06:08:33.941Z,62.41
2022-08-20T06:11:37.596Z,62.25
2022-08-20T06:14:40.690Z,62.22
2022-08-20T06:17:43.681Z,62.15
2022-08-20T06:20:48.071Z,62.34
2022-08-20T06:23:56.950Z,62.27
2022-08-20T06:27:04.929Z,62.19
2022-08-20T06:30:10.339Z,62.01
2022-08-20T06:33:13.562Z,61.98
2022-08-20T06:36:18.910Z,61.78
2022-08-20T06:39:22.703Z,62.23
2022-08-20T06:42:25.718Z,62.20
2022-08-20T06:45:31.349Z,62.12
2022-08-20T06:48:35.426Z,62.03
2022-08-20T06:51:41.301Z,61.98
2022-08-20T06:54:44.525Z,61.94
2022-08-20T06:57:48.351Z,61.83
2022-08-20T07:00:51.507Z,61.77
2022-08-20T07:03:56.226Z,61.72
2022-08-20T07:07:00.862Z,61.69
2022-08-20T07:10:05.974Z,61.58
2022-08-20T07:13:09.281Z,61.52
2022-08-20T07:16:13.449Z,61.48
2022-08-20T07:19:16.702Z,61.68
2022-08-20T07:22:21.151Z,61.54
2022-08-20T07:25:24.956Z,61.59
2022-08-20T07:28:29.690Z,61.57
2022-08-20T07:31:50.337Z,61.58
2022-08-20T07:34:53.444Z,61.69
2022-08-20T07:37:57.870Z,61.50
2022-08-20T07:41:03.597Z,61.53
2022-08-20T07:44:06.663Z,61.61
2022-08-20T07:47:09.709Z,61.66
2022-08-20T07:50:15.357Z,61.58
2022-08-20T07:53:19.803Z,61.52
2022-08-20T07:56:24.759Z,61.47
2022-08-20T07:59:27.781Z,61.65
2022-08-20T08:02:30.859Z,61.97
2022-08-20T08:05:35.699Z,61.91
2022-08-20T08:08:41.401Z,62.11
2022-08-20T08:11:49.997Z,61.88
2022-08-20T08:14:54.449Z,62.00
2022-08-20T08:18:01.301Z,62.27
2022-08-20T08:21:06.025Z,61.89
2022-08-20T08:24:12.696Z,62.11
2022-08-20T08:27:18.602Z,62.47
2022-08-20T08:30:21.654Z,62.24
2022-08-20T08:33:30.821Z,62.17
2022-08-20T08:36:33.842Z,62.20
2022-08-20T08:39:38.688Z,61.86
2022-08-20T08:42:45.782Z,61.81
2022-08-20T08:45:57.379Z,61.70
2022-08-20T08:49:02.835Z,61.51
2022-08-20T08:52:12.331Z,61.55
2022-08-20T08:55:21.583Z,61.63
2022-08-20T08:58:24.587Z,61.63
2022-08-20T09:01:54.652Z,61.39
2022-08-20T09:04:56.014Z,61.55
2022-08-20T09:08:00.090Z,61.61
2022-08-20T09:11:08.242Z,61.83
2022-08-20T09:14:11.491Z,62.06
2022-08-20T09:17:15.292Z,62.43
2022-08-20T09:20:19.383Z,62.11
2022-08-20T09:23:22.365Z,62.85
2022-08-20T09:26:29.092Z,62.69
2022-08-20T09:29:32.726Z,62.27
2022-08-20T09:32:35.961Z,62.43
2022-08-20T09:35:40.334Z,62.31
2022-08-20T09:38:43.418Z,62.41
2022-08-20T09:41:47.797Z,62.20
2022-08-20T09:44:51.563Z,62.06
2022-08-20T09:47:55.441Z,62.26
2022-08-20T09:51:13.649Z,62.31
2022-08-20T09:54:16.758Z,62.46
2022-08-20T09:57:21.203Z,62.18
2022-08-20T10:00:24.237Z,62.30
2022-08-20T10:03:27.363Z,61.99
2022-08-20T10:06:32.511Z,61.98
2022-08-20T10:09:40.006Z,62.04
2022-08-20T10:12:45.974Z,61.83
2022-08-20T10:15:49.170Z,62.39
2022-08-20T10:18:52.906Z,62.20
2022-08-20T10:21:56.121Z,61.91
2022-08-20T10:24:59.298Z,61.59
2022-08-20T10:28:04.167Z,61.59
2022-08-20T10:31:08.016Z,61.33
2022-08-20T10:34:11.205Z,61.28
2022-08-20T10:37:16.866Z,61.49
2022-08-20T10:40:20.038Z,61.36
2022-08-20T10:43:24.526Z,61.42
2022-08-20T10:46:27.805Z,61.25
2022-08-20T10:49:34.962Z,61.32
2022-08-20T10:52:37.988Z,61.38
2022-08-20T10:55:41.258Z,61.41
2022-08-20T10:58:45.737Z,61.13
2022-08-20T11:01:48.722Z,61.17
2022-08-20T11:04:52.701Z,61.07
2022-08-20T11:07:56.862Z,60.91
2022-08-20T11:11:00.036Z,61.06
2022-08-20T11:14:04.389Z,60.69
2022-08-20T11:17:09.555Z,61.11
2022-08-20T11:20:14.861Z,61.08
2022-08-20T11:23:18.120Z,60.97
2022-08-20T11:26:24.336Z,60.93
2022-08-20T11:29:33.430Z,60.87
2022-08-20T11:32:37.046Z,60.75
2022-08-20T11:35:49.484Z,60.74
2022-08-20T11:38:53.251Z,60.53
2022-08-20T11:41:56.358Z,60.43
2022-08-20T11:45:00.766Z,60.11
2022-08-20T11:48:04.082Z,60.06
2022-08-20T11:51:07.561Z,59.74
2022-08-20T11:54:10.609Z,59.78
2022-08-20T11:57:14.871Z,59.66
2022-08-20T12:00:29.274Z,59.12
2022-08-20T12:03:36.006Z,59.34
2022-08-20T12:06:39.015Z,59.38
2022-08-20T12:09:50.970Z,59.70
2022-08-20T12:12:54.503Z,59.70
2022-08-20T12:15:59.252Z,59.54
2022-08-20T12:19:02.329Z,60.07
2022-08-20T12:22:23.166Z,59.95
2022-08-20T12:25:28.206Z,59.23
2022-08-20T12:28:31.642Z,59.88
2022-08-20T12:31:36.115Z,59.65
2022-08-20T12:34:41.658Z,58.84
2022-08-20T12:37:45.833Z,59.32
2022-08-20T12:40:50.459Z,58.82
2022-08-20T12:43:53.477Z,58.33
2022-08-20T12:47:08.936Z,58.18
2022-08-20T12:50:14.246Z,58.59
2022-08-20T12:53:17.533Z,58.25
2022-08-20T12:56:20.641Z,58.70
2022-08-20T12:59:26.116Z,58.48
2022-08-20T13:02:30.649Z,57.73
2022-08-20T13:05:35.641Z,58.93
2022-08-20T13:08:38.613Z,58.94
2022-08-20T13:11:42.589Z,58.64
2022-08-20T13:14:45.795Z,58.32
2022-08-20T13:17:53.406Z,58.33
2022-08-20T13:20:57.013Z,58.19
2022-08-20T13:23:59.976Z,58.31
2022-08-20T13:27:08.686Z,57.64
2022-08-20T13:30:15.641Z,57.88
2022-08-20T13:33:20.038Z,57.25
2022-08-20T13:36:23.302Z,57.10
2022-08-20T13:39:26.423Z,56.91
2022-08-20T13:42:29.631Z,57.28
2022-08-20T13:45:32.650Z,57.90
2022-08-20T13:48:37.151Z,57.51
2022-08-20T13:51:40.223Z,56.62
2022-08-20T13:54:43.282Z,56.68
2022-08-20T13:57:46.478Z,57.02
2022-08-20T14:00:50.385Z,56.66
2022-08-20T14:03:54.905Z,56.41
2022-08-20T14:06:59.326Z,56.97
2022-08-20T14:10:07.140Z,56.68
2022-08-20T14:13:15.094Z,57.10
2022-08-20T14:16:27.228Z,56.86
2022-08-20T14:19:32.519Z,57.18
2022-08-20T14:22:36.751Z,57.24
2022-08-20T14:25:40.459Z,57.10
2022-08-20T14:28:43.478Z,57.06
2022-08-20T14:31:46.505Z,57.20
2022-08-20T14:34:50.903Z,57.35
2022-08-20T14:37:55.481Z,57.31
2022-08-20T14:40:58.642Z,57.25
2022-08-20T14:44:01.741Z,57.27
2022-08-20T14:47:16.933Z,57.87
2022-08-20T14:50:25.065Z,58.03
2022-08-20T14:53:28.237Z,58.59
2022-08-20T14:56:31.315Z,59.30
2022-08-20T14:59:34.526Z,59.00
2022-08-20T15:02:38.907Z,58.94
2022-08-20T15:05:44.068Z,59.17
2022-08-20T15:08:47.737Z,59.24
2022-08-20T15:11:50.879Z,59.61
2022-08-20T15:14:54.314Z,59.48
2022-08-20T15:18:00.992Z,59.63
2022-08-20T15:21:05.422Z,59.22
2022-08-20T15:24:18.919Z,59.86
2022-08-20T15:27:25.990Z,59.76
2022-08-20T15:30:30.855Z,59.49
2022-08-20T15:33:33.833Z,59.79
2022-08-20T15:36:38.210Z,59.58
2022-08-20T15:39:45.539Z,59.54
2022-08-20T15:42:48.726Z,59.83
2022-08-20T15:45:51.743Z,59.79
2022-08-20T15:48:54.842Z,59.77
2022-08-20T15:51:59.817Z,59.96
2022-08-20T15:55:03.722Z,60.06
2022-08-20T15:58:15.846Z,60.12
2022-08-20T16:01:26.061Z,60.39
2022-08-20T16:04:52.868Z,60.28
2022-08-20T16:08:06.674Z,60.68
2022-08-20T16:11:23.149Z,60.64
2022-08-20T16:14:29.210Z,60.80
2022-08-20T16:17:38.468Z,60.44
2022-08-20T16:20:44.198Z,61.12
2022-08-20T16:23:52.538Z,60.99
2022-08-20T16:27:13.636Z,60.77
2022-08-20T16:30:21.973Z,60.78
2022-08-20T16:33:31.526Z,61.06
2022-08-20T16:36:39.134Z,60.81
2022-08-20T16:39:54.269Z,61.13
2022-08-20T16:43:00.758Z,60.83
2022-08-20T16:46:07.418Z,61.09
2022-08-20T16:49:14.395Z,61.84
2022-08-20T16:52:17.568Z,61.87
2022-08-20T16:55:25.121Z,61.51
2022-08-20T16:58:28.562Z,61.42
2022-08-20T17:01:31.767Z,61.37
2022-08-20T17:04:36.255Z,61.81
2022-08-20T17:07:46.298Z,62.53
2022-08-20T17:11:01.422Z,62.09
2022-08-20T17:14:09.031Z,61.52
2022-08-20T17:17:20.519Z,61.66
2022-08-20T17:20:28.048Z,61.43
2022-08-20T17:23:49.203Z,61.54
2022-08-20T17:27:02.682Z,61.53
2022-08-20T17:30:11.641Z,61.58
2022-08-20T17:33:30.640Z,61.26
2022-08-20T17:36:34.386Z,61.24
2022-08-20T17:39:47.104Z,61.24
2022-08-20T17:42:54.016Z,61.36
2022-08-20T17:45:59.234Z,61.07
2022-08-20T17:49:09.145Z,60.99
2022-08-20T17:52:17.166Z,61.10
2022-08-20T17:55:21.210Z,61.25
2022-08-20T17:58:33.295Z,61.10
2022-08-20T18:01:36.454Z,61.19
2022-08-20T18:04:39.663Z,61.15
2022-08-20T18:07:57.253Z,61.47
2022-08-20T18:11:07.800Z,61.30
2022-08-20T18:14:35.202Z,61.29
2022-08-20T18:18:07.479Z,61.50
2022-08-20T18:21:27.013Z,61.75
2022-08-20T18:24:37.716Z,61.50
2022-08-20T18:27:45.413Z,61.23
2022-08-20T18:30:52.724Z,61.55
2022-08-20T18:33:55.901Z,61.47
2022-08-20T18:37:01.542Z,61.71
2022-08-20T18:40:17.276Z,61.12
2022-08-20T18:43:30.561Z,61.51
2022-08-20T18:46:35.934Z,61.37
2022-08-20T18:49:41.106Z,61.67
2022-08-20T18:52:46.410Z,61.88
2022-08-20T18:56:02.178Z,61.67
2022-08-20T18:59:10.661Z,61.49
2022-08-20T19:02:24.134Z,61.43
2022-08-20T19:05:32.404Z,61.16
2022-08-20T19:08:54.333Z,61.19
2022-08-20T19:12:16.101Z,61.30
2022-08-20T19:15:21.120Z,61.24
2022-08-20T19:18:31.952Z,61.26
2022-08-20T19:21:36.424Z,61.67
2022-08-20T19:24:44.176Z,61.51
2022-08-20T19:27:47.334Z,61.59
2022-08-20T19:30:50.714Z,61.85
2022-08-20T19:34:18.968Z,61.58
2022-08-20T19:37:35.330Z,61.41
2022-08-20T19:40:46.169Z,61.72
2022-08-20T19:43:49.975Z,61.78
2022-08-20T19:46:53.583Z,61.73
2022-08-20T19:50:14.611Z,61.70
2022-08-20T19:53:29.982Z,61.78
2022-08-20T19:56:41.290Z,61.30
2022-08-20T19:59:53.355Z,61.66
2022-08-20T20:02:56.784Z,61.17
2022-08-20T20:06:03.739Z,61.26
2022-08-20T20:09:22.151Z,61.57
2022-08-20T20:12:25.851Z,61.13
2022-08-20T20:15:28.925Z,61.17
2022-08-20T20:18:37.164Z,61.25
2022-08-20T20:21:44.246Z,61.25
2022-08-20T20:24:49.958Z,61.15
2022-08-20T20:27:55.956Z,61.21
2022-08-20T20:31:07.360Z,61.33
2022-08-20T20:34:14.463Z,61.24
2022-08-20T20:37:49.600Z,61.62
2022-08-20T20:40:56.477Z,61.50
2022-08-20T20:44:02.700Z,61.18
2022-08-20T20:47:09.373Z,61.35
2022-08-20T20:50:13.314Z,60.94
2022-08-20T20:53:35.085Z,61.33
2022-08-20T20:57:03.003Z,61.13
2022-08-20T21:00:08.750Z,61.19
2022-08-20T21:03:11.705Z,61.08
2022-08-20T21:06:14.986Z,60.92
2022-08-20T21:09:19.750Z,60.95
2022-08-20T21:12:22.863Z,60.76
2022-08-20T21:15:27.225Z,60.91
2022-08-20T21:18:31.810Z,61.21
2022-08-20T21:21:35.085Z,61.10
2022-08-20T21:24:39.511Z,61.26
2022-08-20T21:27:46.646Z,61.10
2022-08-20T21:30:51.559Z,61.48
2022-08-20T21:34:01.899Z,61.54
2022-08-20T21:37:04.977Z,61.20
2022-08-20T21:40:11.274Z,60.97
2022-08-20T21:43:14.445Z,61.00
2022-08-20T21:46:18.297Z,61.52
2022-08-20T21:49:30.831Z,63.62
2022-08-20T21:52:34.292Z,63.53
2022-08-20T21:55:40.710Z,62.54
2022-08-20T21:58:45.326Z,61.81
2022-08-20T22:01:48.785Z,61.54
2022-08-20T22:04:51.761Z,62.06
2022-08-20T22:07:57.054Z,61.69
2022-08-20T22:11:02.744Z,61.38
2022-08-20T22:14:08.282Z,61.67
2022-08-20T22:17:11.367Z,61.70
2022-08-20T22:20:14.407Z,61.80
2022-08-20T22:23:17.534Z,61.87
2022-08-20T22:26:22.494Z,61.83
2022-08-20T22:29:30.594Z,61.67
2022-08-20T22:32:51.621Z,61.58
2022-08-20T22:35:57.657Z,61.99
2022-08-20T22:39:01.468Z,62.20
2022-08-20T22:42:06.631Z,62.16
2022-08-20T22:45:14.516Z,62.26
2022-08-20T22:48:20.169Z,62.06
2022-08-20T22:51:28.173Z,61.84
2022-08-20T22:54:31.473Z,61.71
2022-08-20T22:57:35.844Z,61.84
2022-08-20T23:00:39.720Z,61.81
2022-08-20T23:03:42.786Z,61.79
2022-08-20T23:06:46.078Z,61.73
2022-08-20T23:09:49.456Z,61.70
2022-08-20T23:12:53.916Z,61.57
2022-08-20T23:15:57.305Z,61.61
2022-08-20T23:19:00.957Z,61.54
2022-08-20T23:22:04.070Z,61.71
2022-08-20T23:25:09.653Z,61.53
2022-08-20T23:28:14.141Z,61.66
2022-08-20T23:31:17.351Z,61.59
2022-08-20T23:34:20.513Z,61.50
2022-08-20T23:37:23.601Z,61.44
2022-08-20T23:40:28.665Z,61.46
2022-08-20T23:43:33.270Z,61.00
2022-08-20T23:46:37.838Z,61.29
2022-08-20T23:49:40.870Z,61.21
2022-08-20T23:52:44.297Z,61.57
2022-08-20T23:55:47.342Z,61.35
2022-08-20T23:58:51.762Z,61.39
